Time;durP1;ratioP1;P1;durP2;ratioP2;P2;SDS_P1;SDS_P2;PMS_P1;PMS_P2;Temp;Humidity;BMP_temperature;BMP_pressure;BME280_temperature;BME280_humidity;BME280_pressure;Samples;Min_cycle;Max_cycle;Signal;HPM_P1;HPM_P2
2022/08/16 00:00:14;;;;;;;17.80;7.42;;;;;;;22.15;74.58;99523.48;1443694;90;22365;-80
2022/08/16 00:02:41;;;;;;;16.48;7.62;;;;;;;22.18;74.22;99521.67;1427392;89;21904;-80
2022/08/16 00:05:10;;;;;;;11.20;6.45;;;;;;;22.16;73.95;99517.05;1459011;89;21501;-80
2022/08/16 00:07:38;;;;;;;13.50;6.83;;;;;;;22.15;73.72;99514.05;1440365;89;22197;-80
2022/08/16 00:10:08;;;;;;;13.53;6.37;;;;;;;22.15;73.93;99510.01;1443733;89;21359;-81
2022/08/16 00:12:34;;;;;;;17.50;7.67;;;;;;;22.14;74.16;99516.47;1456006;89;21390;-80
2022/08/16 00:15:07;;;;;;;10.15;7.15;;;;;;;22.12;74.24;99511.85;1440899;89;21376;-80
2022/08/16 00:17:33;;;;;;;12.88;6.67;;;;;;;22.12;74.85;99526.67;1451646;89;21436;-80
2022/08/16 00:20:00;;;;;;;12.40;8.23;;;;;;;22.08;75.08;99531.20;1443354;88;21323;-80
2022/08/16 00:22:26;;;;;;;11.05;7.03;;;;;;;22.03;75.33;99536.50;1449899;89;21450;-80
2022/08/16 00:24:53;;;;;;;14.73;6.90;;;;;;;22.00;75.35;99537.53;1438775;89;21406;-80
2022/08/16 00:27:19;;;;;;;13.38;6.78;;;;;;;21.96;75.63;99537.20;1454620;89;21418;-80
2022/08/16 00:29:45;;;;;;;11.75;6.97;;;;;;;21.97;75.41;99542.87;1449290;89;21381;-80
2022/08/16 00:32:12;;;;;;;14.33;6.78;;;;;;;21.99;75.62;99545.33;1448844;89;21391;-79
2022/08/16 00:34:38;;;;;;;11.20;6.03;;;;;;;22.00;75.80;99549.11;1455850;89;21625;-80
2022/08/16 00:37:05;;;;;;;15.75;6.70;;;;;;;22.02;75.22;99560.47;1427307;91;22307;-80
2022/08/16 00:39:31;;;;;;;14.63;6.87;;;;;;;22.03;74.58;99565.33;1446780;89;21374;-80
2022/08/16 00:41:57;;;;;;;14.78;6.50;;;;;;;22.01;74.16;99562.89;1454713;89;22203;-80
2022/08/16 00:44:23;;;;;;;15.75;6.47;;;;;;;21.96;73.99;99569.53;1413102;91;22442;-80
2022/08/16 00:47:04;;;;;;;14.28;6.00;;;;;;;21.94;73.85;99571.64;1436916;89;21352;-80
2022/08/16 00:49:33;;;;;;;12.53;6.25;;;;;;;21.91;74.19;99581.56;1448677;89;21366;-80
2022/08/16 00:51:59;;;;;;;10.58;6.95;;;;;;;21.90;74.63;99577.24;1453017;89;21322;-80
2022/08/16 00:54:28;;;;;;;10.98;6.37;;;;;;;21.89;74.76;99574.24;1448242;89;21353;-80
2022/08/16 00:56:57;;;;;;;13.68;7.42;;;;;;;21.90;74.60;99573.20;1443363;89;21346;-80
2022/08/16 00:59:27;;;;;;;16.85;7.12;;;;;;;21.90;74.54;99570.51;1455112;89;21374;-80
2022/08/16 01:01:54;;;;;;;;;;;;;;;21.90;74.40;99560.27;1448982;88;21495;-79
2022/08/16 01:04:24;;;;;;;9.93;7.30;;;;;;;21.85;74.94;99572.57;1455415;89;20389;-79
2022/08/16 01:06:50;;;;;;;;;;;;;;;21.82;74.20;99568.20;1450851;89;21331;-79
2022/08/16 01:09:18;;;;;;;13.18;6.22;;;;;;;21.77;75.42;99565.41;1461125;89;20307;-79
2022/08/16 01:11:44;;;;;;;12.88;6.35;;;;;;;21.77;74.34;99572.14;1440762;89;21352;-79
2022/08/16 01:14:16;;;;;;;10.13;5.72;;;;;;;21.78;74.31;99564.34;1459131;89;21405;-79
2022/08/16 01:16:46;;;;;;;12.47;5.80;;;;;;;21.79;74.08;99564.11;1447591;89;21355;-80
2022/08/16 01:19:38;;;;;;;12.65;6.12;;;;;;;21.84;73.33;99567.44;1444023;89;21498;-80
2022/08/16 01:22:27;;;;;;;10.28;6.92;;;;;;;21.88;72.79;99571.27;1443801;89;21548;-80
2022/08/16 01:25:03;;;;;;;10.48;6.37;;;;;;;21.87;72.55;99579.08;1468262;89;22334;-80
2022/08/16 01:27:38;;;;;;;15.23;6.72;;;;;;;21.82;72.44;99582.48;1461263;89;21565;-80
2022/08/16 01:30:16;;;;;;;10.32;6.05;;;;;;;21.82;72.41;99587.06;1422776;91;22076;-80
2022/08/16 01:32:42;;;;;;;7.85;5.80;;;;;;;21.80;72.76;99588.63;1455651;89;21382;-80
2022/08/16 01:35:51;;;;;;;10.13;6.30;;;;;;;21.79;72.98;99582.97;1455761;89;22432;-80
2022/08/16 01:38:34;;;;;;;10.80;6.22;;;;;;;21.79;72.94;99584.84;1444537;90;22226;-80
2022/08/16 01:41:14;;;;;;;10.13;5.70;;;;;;;21.80;72.97;99587.28;1450565;90;21589;-80
2022/08/16 01:43:44;;;;;;;6.90;5.30;;;;;;;21.80;73.15;99591.86;1434890;89;21442;-80
2022/08/16 01:46:28;;;;;;;9.85;6.83;;;;;;;21.79;73.38;99592.93;1459446;89;22767;-80
2022/08/16 01:49:02;;;;;;;8.75;5.90;;;;;;;21.74;73.35;99592.83;1436463;90;22428;-80
2022/08/16 01:51:30;;;;;;;9.95;5.83;;;;;;;21.72;73.67;99589.55;1427109;90;22543;-80
2022/08/16 01:53:56;;;;;;;10.58;6.30;;;;;;;21.70;73.75;99578.23;1440824;89;21973;-80
2022/08/16 01:56:25;;;;;;;12.25;6.17;;;;;;;21.70;73.83;99579.03;1438537;89;21315;-79
2022/08/16 01:58:54;;;;;;;11.78;5.83;;;;;;;21.71;73.54;99565.04;1430496;90;21318;-79
2022/08/16 02:01:21;;;;;;;11.77;7.27;;;;;;;21.71;73.27;99567.73;1458761;89;21434;-80
2022/08/16 02:03:48;;;;;;;10.98;6.05;;;;;;;21.69;73.07;99563.11;1440040;89;21426;-79
2022/08/16 02:06:14;;;;;;;9.23;6.85;;;;;;;21.66;72.81;99556.86;1452068;89;21330;-79
2022/08/16 02:08:41;;;;;;;7.37;5.47;;;;;;;21.63;72.55;99559.50;1445983;89;21555;-79
2022/08/16 02:11:08;;;;;;;11.65;5.70;;;;;;;21.65;72.73;99549.85;1435565;90;21308;-80
2022/08/16 02:13:39;;;;;;;11.30;6.22;;;;;;;21.68;72.91;99546.14;1448215;89;21904;-80
2022/08/16 02:16:09;;;;;;;10.72;6.37;;;;;;;21.74;72.72;99545.70;1454496;89;22626;-79
2022/08/16 02:18:35;;;;;;;10.60;6.65;;;;;;;21.78;72.34;99541.45;1436134;90;21434;-79
2022/08/16 02:21:04;;;;;;;7.35;5.90;;;;;;;21.80;71.85;99545.54;1418369;92;21341;-79
2022/08/16 02:23:33;;;;;;;10.00;6.72;;;;;;;21.79;71.58;99555.23;1436163;91;21376;-79
2022/08/16 02:25:59;;;;;;;8.98;6.62;;;;;;;21.78;71.64;99550.87;1443468;91;21449;-79
2022/08/16 02:28:25;;;;;;;7.33;6.15;;;;;;;21.74;71.60;99556.47;1430946;91;22068;-80
2022/08/16 02:30:53;;;;;;;10.43;6.28;;;;;;;21.72;71.90;99550.50;1446375;91;21368;-81
2022/08/16 02:33:25;;;;;;;8.85;6.53;;;;;;;21.69;72.20;99543.72;1438391;91;21360;-81
2022/08/16 02:35:52;;;;;;;7.55;6.28;;;;;;;21.70;72.41;99545.38;1433956;91;21427;-80
2022/08/16 02:38:18;;;;;;;14.68;7.30;;;;;;;21.69;72.24;99544.25;1437345;90;21309;-80
2022/08/16 02:40:44;;;;;;;12.68;6.87;;;;;;;21.67;72.26;99550.44;1435550;91;21561;-80
2022/08/16 02:43:12;;;;;;;9.48;6.20;;;;;;;21.66;72.27;99550.94;1437956;91;22778;-80
2022/08/16 02:45:40;;;;;;;9.25;6.22;;;;;;;21.64;72.54;99550.38;1410564;92;21337;-81
2022/08/16 02:48:07;;;;;;;10.78;6.03;;;;;;;21.65;72.84;99552.55;1420623;92;21348;-80
2022/08/16 02:50:34;;;;;;;11.55;6.75;;;;;;;21.65;73.14;99539.08;1436747;91;21405;-79
2022/08/16 02:53:00;;;;;;;10.55;6.05;;;;;;;21.69;73.15;99538.88;1431489;91;21339;-80
2022/08/16 02:55:26;;;;;;;8.65;6.20;;;;;;;21.70;73.02;99533.26;1440990;89;22365;-80
2022/08/16 02:57:53;;;;;;;9.65;5.85;;;;;;;21.72;72.75;99533.84;1423850;91;21564;-81
2022/08/16 03:00:19;;;;;;;14.58;6.15;;;;;;;21.75;72.49;99524.44;1428187;89;21310;-80
2022/08/16 03:02:45;;;;;;;9.93;6.97;;;;;;;21.79;72.32;99519.68;1433799;91;23562;-80
2022/08/16 03:05:14;;;;;;;12.85;6.58;;;;;;;21.83;71.84;99518.12;1432095;91;21383;-80
2022/08/16 03:07:42;;;;;;;7.97;5.62;;;;;;;21.83;71.78;99514.61;1435883;91;21302;-80
2022/08/16 03:10:12;;;;;;;11.08;5.85;;;;;;;21.84;71.75;99521.66;1433749;91;21339;-80
2022/08/16 03:12:42;;;;;;;9.80;6.45;;;;;;;21.83;71.60;99517.31;1433644;91;22557;-80
2022/08/16 03:15:11;;;;;;;9.93;5.90;;;;;;;21.80;71.43;99513.22;1440755;91;21449;-79
2022/08/16 03:17:38;;;;;;;7.10;6.40;;;;;;;21.81;71.17;99520.80;1426529;91;21457;-79
2022/08/16 03:20:06;;;;;;;7.15;6.35;;;;;;;21.78;71.07;99512.67;1416205;91;21442;-78
2022/08/16 03:22:33;;;;;;;10.15;6.28;;;;;;;21.74;71.27;99514.73;1438182;89;21391;-78
2022/08/16 03:25:03;;;;;;;12.03;5.60;;;;;;;21.68;71.85;99517.05;1428915;89;23284;-78
2022/08/16 03:27:34;;;;;;;11.18;6.17;;;;;;;21.63;71.98;99517.23;1440071;89;21405;-78
2022/08/16 03:30:08;;;;;;;8.83;6.05;;;;;;;21.60;72.28;99521.75;1428812;91;21371;-78
2022/08/16 03:32:34;;;;;;;7.25;6.40;;;;;;;21.57;71.97;99519.55;1403859;91;21481;-78
2022/08/16 03:35:00;;;;;;;7.47;6.67;;;;;;;21.54;72.19;99517.34;1420513;91;22600;-78
2022/08/16 03:37:26;;;;;;;7.17;6.28;;;;;;;21.49;72.17;99515.93;1433313;91;21339;-78
2022/08/16 03:39:52;;;;;;;10.78;6.28;;;;;;;21.44;72.47;99511.79;1415785;91;23440;-78
2022/08/16 03:42:18;;;;;;;14.03;6.85;;;;;;;21.39;73.27;99512.50;1424305;91;21458;-78
2022/08/16 03:44:44;;;;;;;13.55;6.35;;;;;;;21.37;73.78;99524.02;1439082;90;21383;-79
2022/08/16 03:47:11;;;;;;;11.33;7.15;;;;;;;21.35;74.94;99519.94;1439417;91;21502;-78
2022/08/16 03:49:37;;;;;;;9.15;7.08;;;;;;;21.33;75.00;99526.89;1437768;90;21538;-78
2022/08/16 03:52:04;;;;;;;9.08;7.83;;;;;;;21.31;76.14;99526.84;1436103;90;21346;-78
2022/08/16 03:54:30;;;;;;;14.50;7.58;;;;;;;21.30;75.89;99528.72;1430423;90;21384;-81
2022/08/16 03:56:56;;;;;;;9.53;7.33;;;;;;;21.30;75.74;99521.98;1437413;89;21433;-80
2022/08/16 03:59:22;;;;;;;9.05;6.87;;;;;;;21.31;75.66;99526.84;1444362;89;21443;-80
2022/08/16 04:01:48;;;;;;;11.75;6.70;;;;;;;21.30;76.43;99527.91;1443974;89;21384;-80
2022/08/16 04:04:14;;;;;;;13.80;7.25;;;;;;;21.31;76.23;99524.14;1431345;91;21395;-79
2022/08/16 04:06:40;;;;;;;7.75;6.22;;;;;;;21.33;76.37;99526.08;1435609;89;22365;-80
2022/08/16 04:09:06;;;;;;;8.68;6.20;;;;;;;21.30;76.68;99527.91;1455404;89;21383;-80
2022/08/16 04:11:32;;;;;;;15.63;8.13;;;;;;;21.34;76.19;99523.67;1459378;89;21427;-80
2022/08/16 04:13:58;;;;;;;14.68;7.78;;;;;;;21.34;76.11;99532.55;1456162;89;21418;-80
2022/08/16 04:16:24;;;;;;;9.30;6.45;;;;;;;21.34;76.41;99531.20;1450941;89;22358;-80
2022/08/16 04:18:50;;;;;;;9.85;6.90;;;;;;;21.34;76.50;99531.73;1456014;89;21493;-80
2022/08/16 04:21:16;;;;;;;6.85;5.65;;;;;;;21.33;77.30;99535.50;1435343;91;21467;-80
2022/08/16 04:23:42;;;;;;;10.10;6.40;;;;;;;21.34;77.24;99531.73;1438845;91;21400;-81
2022/08/16 04:26:09;;;;;;;11.15;6.75;;;;;;;21.35;77.60;99530.70;1444448;91;22243;-81
2022/08/16 04:28:35;;;;;;;10.75;7.17;;;;;;;21.37;77.74;99530.75;1439396;89;21546;-80
2022/08/16 04:31:01;;;;;;;9.58;7.08;;;;;;;21.41;77.36;99533.80;1462096;89;21594;-80
2022/08/16 04:33:27;;;;;;;9.15;7.20;;;;;;;21.43;77.05;99531.67;1445516;90;21516;-81
2022/08/16 04:35:56;;;;;;;8.65;6.45;;;;;;;21.45;76.66;99530.91;1446671;89;21323;-80
2022/08/16 04:38:24;;;;;;;14.63;7.40;;;;;;;21.44;76.32;99530.63;1450580;89;21894;-80
2022/08/16 04:40:50;;;;;;;7.60;6.80;;;;;;;21.42;76.73;99534.08;1456816;89;21352;-80
2022/08/16 04:43:17;;;;;;;12.37;8.03;;;;;;;21.42;76.75;99540.81;1458986;89;22359;-80
2022/08/16 04:45:44;;;;;;;14.05;6.67;;;;;;;21.44;76.70;99544.09;1453729;88;22461;-80
2022/08/16 04:48:11;;;;;;;20.15;8.85;;;;;;;21.43;76.80;99544.31;1439082;90;21392;-81
2022/08/16 04:50:37;;;;;;;13.68;8.23;;;;;;;21.42;77.97;99544.84;1455051;89;21464;-81
2022/08/16 04:53:03;;;;;;;14.13;7.17;;;;;;;21.38;78.53;99541.02;1447997;89;21367;-81
2022/08/16 04:55:30;;;;;;;18.23;7.92;;;;;;;21.30;80.23;99544.86;1452681;89;21477;-81
2022/08/16 04:57:57;;;;;;;11.97;7.37;;;;;;;21.27;79.48;99540.49;1452673;89;21879;-81
2022/08/16 05:00:32;;;;;;;21.40;7.00;;;;;;;21.21;80.81;99545.49;1445267;89;22285;-81
2022/08/16 05:03:03;;;;;;;14.18;7.87;;;;;;;21.14;82.14;99545.08;1453292;89;21503;-81
2022/08/16 05:05:30;;;;;;;17.55;7.22;;;;;;;21.09;82.64;99546.34;1439615;89;22366;-81
2022/08/16 05:07:56;;;;;;;14.30;6.72;;;;;;;21.09;82.82;99550.38;1444923;89;21569;-80
2022/08/16 05:10:23;;;;;;;17.00;7.62;;;;;;;21.11;82.87;99554.97;1444957;89;21412;-81
2022/08/16 05:12:49;;;;;;;11.35;7.42;;;;;;;21.10;82.72;99547.96;1450458;89;21871;-80
2022/08/16 05:15:15;;;;;;;14.78;8.55;;;;;;;21.12;82.57;99551.24;1449542;89;21510;-81
2022/08/16 05:17:41;;;;;;;16.85;7.65;;;;;;;21.14;82.40;99543.73;1460924;89;21344;-80
2022/08/16 05:20:10;;;;;;;12.18;7.45;;;;;;;21.14;82.05;99545.61;1461495;89;21532;-80
2022/08/16 05:22:38;;;;;;;22.27;8.03;;;;;;;21.18;82.11;99546.25;1442763;89;21466;-81
2022/08/16 05:25:07;;;;;;;15.13;7.03;;;;;;;21.24;82.16;99550.39;1447187;89;21457;-81
2022/08/16 05:27:34;;;;;;;12.00;7.30;;;;;;;21.26;81.84;99556.33;1447155;89;21411;-81
2022/08/16 05:30:00;;;;;;;11.97;8.15;;;;;;;21.26;81.52;99563.06;1456829;89;21566;-81
2022/08/16 05:32:27;;;;;;;10.60;7.42;;;;;;;21.25;81.06;99560.09;1453689;89;21397;-80
2022/08/16 05:34:54;;;;;;;9.63;6.35;;;;;;;21.23;80.77;99563.00;1448048;89;21443;-80
2022/08/16 05:37:23;;;;;;;10.25;7.33;;;;;;;21.22;80.85;99574.84;1455851;89;22168;-80
2022/08/16 05:39:49;;;;;;;12.30;7.47;;;;;;;21.21;80.92;99573.21;1460281;89;21455;-80
2022/08/16 05:42:15;;;;;;;9.68;7.87;;;;;;;21.23;81.34;99575.64;1452326;89;21500;-80
2022/08/16 05:44:41;;;;;;;11.95;7.37;;;;;;;21.26;81.39;99577.36;1455178;90;21346;-80
2022/08/16 05:47:07;;;;;;;13.15;7.45;;;;;;;21.31;81.39;99583.35;1451534;89;22355;-80
2022/08/16 05:49:34;;;;;;;10.13;8.38;;;;;;;21.33;81.32;99582.06;1463207;89;21522;-79
2022/08/16 05:52:00;;;;;;;13.03;8.68;;;;;;;21.36;81.29;99582.12;1454932;89;21568;-80
2022/08/16 05:54:27;;;;;;;17.70;8.88;;;;;;;21.38;81.08;99576.81;1445651;89;21596;-80
2022/08/16 05:56:55;;;;;;;17.57;9.53;;;;;;;21.41;80.97;99572.83;1458429;89;22418;-80
2022/08/16 05:59:23;;;;;;;22.62;8.70;;;;;;;21.44;81.13;99572.89;1456394;89;21353;-80
2022/08/16 06:01:50;;;;;;;12.50;8.43;;;;;;;21.48;81.27;99569.45;1461988;89;21396;-80
2022/08/16 06:04:17;;;;;;;12.85;8.15;;;;;;;21.53;81.49;99571.44;1446892;89;21515;-80
2022/08/16 06:06:45;;;;;;;16.17;8.90;;;;;;;21.56;81.53;99575.81;1463803;89;21566;-81
2022/08/16 06:09:13;;;;;;;15.68;9.05;;;;;;;21.58;81.89;99568.32;1464453;89;21380;-81
2022/08/16 06:11:39;;;;;;;13.53;9.25;;;;;;;21.58;80.78;99567.51;1472379;89;21331;-80
2022/08/16 06:14:06;;;;;;;11.73;9.05;;;;;;;21.60;80.55;99571.56;1461809;89;22195;-80
2022/08/16 06:16:32;;;;;;;17.87;9.43;;;;;;;21.63;80.56;99576.47;1462882;89;21352;-80
2022/08/16 06:18:59;;;;;;;22.90;10.65;;;;;;;21.67;80.55;99582.75;1466381;89;22321;-80
2022/08/16 06:21:25;;;;;;;18.73;8.20;;;;;;;21.72;80.51;99584.16;1464579;89;21463;-80
2022/08/16 06:23:52;;;;;;;16.17;9.05;;;;;;;21.79;80.19;99582.16;1470986;88;21441;-80
2022/08/16 06:26:20;;;;;;;19.55;8.63;;;;;;;21.85;79.93;99578.49;1468219;88;21367;-80
2022/08/16 06:28:46;;;;;;;18.70;8.18;;;;;;;21.90;78.93;99577.78;1452833;89;21441;-80
2022/08/16 06:31:14;;;;;;;18.20;7.60;;;;;;;21.97;78.15;99578.42;1457274;89;21538;-81
2022/08/16 06:33:41;;;;;;;21.52;7.67;;;;;;;22.06;77.94;99579.66;1460530;89;21564;-81
2022/08/16 06:36:08;;;;;;;11.00;7.10;;;;;;;22.13;76.47;99582.21;1461202;89;21477;-81
2022/08/16 06:38:36;;;;;;;11.63;7.72;;;;;;;22.10;74.78;99584.86;1464044;89;21685;-80
2022/08/16 06:41:05;;;;;;;10.78;6.90;;;;;;;22.11;75.27;99585.67;1453287;88;21404;-80
2022/08/16 06:43:33;;;;;;;10.08;7.10;;;;;;;22.14;74.71;99591.92;1471097;88;21551;-80
2022/08/16 06:46:02;;;;;;;10.13;7.90;;;;;;;22.21;74.60;99599.33;1465515;88;21551;-80
2022/08/16 06:48:28;;;;;;;8.60;6.97;;;;;;;22.26;74.18;99599.42;1466539;88;21368;-79
2022/08/16 06:50:57;;;;;;;8.20;6.83;;;;;;;22.30;72.53;99604.63;1455554;88;21413;-79
2022/08/16 06:53:23;;;;;;;12.55;6.37;;;;;;;22.38;73.30;99606.08;1453368;89;21573;-78
2022/08/16 06:55:49;;;;;;;11.78;6.53;;;;;;;22.48;72.97;99609.77;1455087;88;21420;-79
2022/08/16 06:58:15;;;;;;;11.08;7.50;;;;;;;22.66;72.12;99614.61;1445526;89;21562;-87
2022/08/16 07:00:41;;;;;;;17.27;7.30;;;;;;;22.86;71.80;99616.27;1447676;89;21434;-82
2022/08/16 07:03:07;;;;;;;8.08;6.22;;;;;;;23.18;71.25;99613.75;1459793;88;22366;-81
2022/08/16 07:05:34;;;;;;;8.50;6.58;;;;;;;23.32;66.98;99616.09;1462904;88;22380;-81
2022/08/16 07:08:03;;;;;;;13.28;7.28;;;;;;;23.37;68.37;99620.22;1432736;89;21514;-81
2022/08/16 07:10:28;;;;;;;9.90;6.22;;;;;;;23.51;67.26;99614.72;1440957;89;21551;-81
2022/08/16 07:12:54;;;;;;;9.08;5.95;;;;;;;23.73;66.96;99617.41;1450109;89;22637;-81
2022/08/16 07:15:20;;;;;;;7.85;6.90;;;;;;;23.91;66.01;99618.13;1447826;88;21426;-81
2022/08/16 07:17:48;;;;;;;8.68;7.08;;;;;;;24.11;64.95;99625.11;1444761;89;21546;-81
2022/08/16 07:20:16;;;;;;;11.88;6.97;;;;;;;24.21;64.16;99613.55;1453191;89;21530;-80
2022/08/16 07:22:42;;;;;;;7.15;6.15;;;;;;;24.37;64.50;99619.89;1459061;88;21434;-79
2022/08/16 07:25:12;;;;;;;8.80;6.75;;;;;;;24.52;63.91;99617.36;1461632;88;21390;-81
2022/08/16 07:27:40;;;;;;;9.93;6.90;;;;;;;24.62;62.70;99622.83;1458880;89;22285;-81
2022/08/16 07:30:11;;;;;;;12.58;5.92;;;;;;;24.72;62.57;99623.45;1438044;89;21501;-82
2022/08/16 07:32:38;;;;;;;10.48;5.30;;;;;;;24.87;62.28;99622.73;1469251;89;21382;-80
2022/08/16 07:35:05;;;;;;;10.03;6.37;;;;;;;24.99;62.16;99621.45;1457638;89;21552;-80
2022/08/16 07:37:32;;;;;;;6.67;5.75;;;;;;;25.05;61.29;99616.88;1468499;88;21463;-80
2022/08/16 07:39:58;;;;;;;7.05;5.60;;;;;;;25.19;61.41;99611.30;1460722;89;21426;-80
2022/08/16 07:42:24;;;;;;;11.97;5.58;;;;;;;25.33;60.65;99608.11;1446964;89;21397;-80
2022/08/16 07:44:50;;;;;;;11.40;6.42;;;;;;;25.47;60.12;99610.60;1468455;88;21574;-79
2022/08/16 07:47:16;;;;;;;6.87;5.83;;;;;;;25.57;59.48;99614.69;1464778;89;21554;-84
2022/08/16 07:49:42;;;;;;;8.38;5.47;;;;;;;25.71;59.23;99610.13;1454115;89;21544;-84
2022/08/16 07:52:08;;;;;;;9.13;6.72;;;;;;;25.79;58.12;99609.61;1464292;88;21389;-85
2022/08/16 07:54:34;;;;;;;7.85;5.75;;;;;;;25.82;57.36;99603.65;1467252;89;21373;-85
2022/08/16 07:57:00;;;;;;;8.35;6.03;;;;;;;25.85;57.12;99606.66;1463939;88;21732;-85
2022/08/16 07:59:27;;;;;;;8.78;5.60;;;;;;;25.99;57.54;99593.41;1467702;89;21486;-85
2022/08/16 08:01:54;;;;;;;6.92;5.65;;;;;;;26.15;57.29;99604.25;1461609;89;21448;-84
2022/08/16 08:04:20;;;;;;;7.40;6.70;;;;;;;26.28;56.43;99601.82;1467556;89;21419;-85
2022/08/16 08:06:46;;;;;;;14.15;6.45;;;;;;;26.28;54.30;99606.44;1471096;88;22321;-84
2022/08/16 08:09:12;;;;;;;7.12;5.33;;;;;;;26.36;55.48;99611.87;1455890;88;21863;-84
2022/08/16 08:11:39;;;;;;;5.95;5.15;;;;;;;26.49;55.49;99605.88;1459712;88;22513;-84
2022/08/16 08:14:06;;;;;;;7.15;5.40;;;;;;;26.60;55.34;99606.72;1458716;88;23254;-84
2022/08/16 08:16:33;;;;;;;12.40;5.12;;;;;;;26.78;55.22;99603.42;1458146;89;21332;-84
2022/08/16 08:19:00;;;;;;;7.47;5.85;;;;;;;26.90;54.27;99607.20;1457306;89;21589;-85
2022/08/16 08:21:26;;;;;;;9.60;5.90;;;;;;;26.96;53.85;99605.57;1463461;89;21404;-85
2022/08/16 08:23:52;;;;;;;8.78;5.83;;;;;;;27.05;53.42;99600.94;1457048;89;21456;-85
2022/08/16 08:26:19;;;;;;;6.25;4.60;;;;;;;27.04;52.82;99605.53;1446501;89;21396;-86
2022/08/16 08:28:46;;;;;;;9.55;5.70;;;;;;;27.18;53.16;99608.50;1464838;88;22262;-86
2022/08/16 08:31:13;;;;;;;8.13;5.30;;;;;;;27.34;53.28;99603.84;1448469;89;21360;-86
2022/08/16 08:33:39;;;;;;;13.15;5.05;;;;;;;27.50;52.62;99605.92;1449311;89;21367;-85
2022/08/16 08:36:10;;;;;;;7.92;5.17;;;;;;;27.63;52.55;99604.77;1465566;88;22379;-85
2022/08/16 08:38:35;;;;;;;10.60;5.22;;;;;;;27.79;52.12;99601.43;1459523;88;21433;-86
2022/08/16 08:41:07;;;;;;;8.10;5.75;;;;;;;27.88;51.51;99605.20;1450299;89;21426;-86
2022/08/16 08:43:31;;;;;;;6.45;4.92;;;;;;;27.93;51.17;99607.61;1454303;89;21411;-86
2022/08/16 08:45:57;;;;;;;8.35;4.62;;;;;;;27.96;50.10;99605.68;1449153;89;22263;-86
2022/08/16 08:48:24;;;;;;;9.85;4.47;;;;;;;27.95;49.66;99610.86;1447875;89;21382;-85
2022/08/16 08:50:50;;;;;;;10.38;5.37;;;;;;;28.00;49.58;99613.00;1457033;89;21448;-85
2022/08/16 08:53:16;;;;;;;11.03;5.08;;;;;;;28.06;49.37;99611.87;1474320;89;21418;-86
2022/08/16 08:55:42;;;;;;;7.95;4.55;;;;;;;28.10;48.15;99617.55;1453457;89;21345;-86
2022/08/16 08:58:09;;;;;;;7.47;4.35;;;;;;;28.16;47.65;99621.05;1447983;90;21419;-85
2022/08/16 09:00:37;;;;;;;5.67;4.70;;;;;;;28.30;48.10;99615.22;1453329;89;21493;-86
2022/08/16 09:03:03;;;;;;;6.33;4.95;;;;;;;28.38;47.30;99628.22;1443298;89;21462;-87
2022/08/16 09:05:29;;;;;;;9.05;5.37;;;;;;;28.45;46.90;99625.19;1427018;89;21515;-84
2022/08/16 09:07:55;;;;;;;16.97;5.10;;;;;;;28.51;46.89;99622.16;1460799;88;21377;-86
2022/08/16 09:10:22;;;;;;;12.10;4.80;;;;;;;28.52;46.68;99617.52;1461664;89;21352;-86
2022/08/16 09:12:48;;;;;;;13.55;5.05;;;;;;;28.63;46.55;99609.53;1466251;88;21337;-84
2022/08/16 09:15:16;;;;;;;5.17;4.67;;;;;;;28.83;46.62;99609.03;1466978;89;21315;-86
2022/08/16 09:17:43;;;;;;;7.90;4.22;;;;;;;28.94;46.08;99605.11;1446330;88;21433;-85
2022/08/16 09:20:12;;;;;;;15.65;4.53;;;;;;;28.98;45.49;99600.72;1474700;89;22313;-84
2022/08/16 09:22:39;;;;;;;5.30;4.00;;;;;;;29.05;44.17;99606.65;1464686;89;21566;-86
2022/08/16 09:25:07;;;;;;;6.37;4.78;;;;;;;29.15;44.99;99607.91;1466376;88;22513;-87
2022/08/16 09:27:35;;;;;;;12.55;5.37;;;;;;;29.28;44.41;99605.56;1465415;87;21537;-87
2022/08/16 09:30:01;;;;;;;7.83;5.47;;;;;;;29.42;44.51;99601.03;1468658;88;21507;-85
2022/08/16 09:32:29;;;;;;;9.40;4.50;;;;;;;29.52;43.83;99596.81;1457111;89;21381;-85
2022/08/16 09:34:56;;;;;;;7.70;4.85;;;;;;;29.58;43.02;99601.09;1447209;89;21462;-85
2022/08/16 09:37:22;;;;;;;9.00;4.90;;;;;;;29.66;42.79;99602.36;1467129;89;22658;-86
2022/08/16 09:39:48;;;;;;;12.23;5.95;;;;;;;29.66;42.76;99604.55;1466907;89;21544;-86
2022/08/16 09:42:15;;;;;;;7.55;4.90;;;;;;;29.79;43.20;99611.73;1457029;89;21578;-86
2022/08/16 09:44:41;;;;;;;11.33;5.10;;;;;;;29.94;43.12;99602.52;1451636;88;21346;-86
2022/08/16 09:47:08;;;;;;;6.97;4.70;;;;;;;29.97;41.94;99608.18;1452481;88;21316;-85
2022/08/16 09:49:35;;;;;;;5.12;4.60;;;;;;;30.02;41.96;99605.94;1366318;90;21236;-86
2022/08/16 09:52:01;;;;;;;4.75;4.28;;;;;;;30.05;41.82;99604.78;1446984;88;21478;-86
2022/08/16 09:54:27;;;;;;;8.30;4.22;;;;;;;30.04;41.34;99608.63;1452824;89;21382;-86
2022/08/16 09:56:54;;;;;;;10.65;5.35;;;;;;;30.05;41.15;99611.60;1453304;88;21302;-85
2022/08/16 09:59:24;;;;;;;11.00;5.03;;;;;;;30.12;41.45;99603.87;1452091;89;21420;-85
2022/08/16 10:01:52;;;;;;;10.85;4.05;;;;;;;30.24;40.98;99598.50;1443711;89;22305;-86
2022/08/16 10:04:19;;;;;;;9.25;4.37;;;;;;;30.32;40.11;99601.92;1442467;89;22365;-85
2022/08/16 10:06:46;;;;;;;8.88;4.45;;;;;;;30.27;40.11;99598.74;1457868;88;21367;-85
2022/08/16 10:09:14;;;;;;;8.48;4.58;;;;;;;30.27;40.47;99591.92;1463951;88;21338;-84
2022/08/16 10:14:29;;;;;;;6.03;4.12;;;;;;;30.40;40.03;99597.14;1441524;89;21531;-85
2022/08/16 10:17:03;;;;;;;20.80;4.80;;;;;;;30.53;39.84;99592.28;1458057;89;22365;-84
2022/08/16 10:19:30;;;;;;;5.35;4.10;;;;;;;30.63;39.87;99596.73;1459132;88;22564;-85
2022/08/16 10:21:56;;;;;;;9.23;5.08;;;;;;;30.76;39.31;99593.80;1440178;88;21500;-83
2022/08/16 10:24:22;;;;;;;6.30;3.75;;;;;;;30.77;38.37;99599.50;1464026;89;22262;-86
2022/08/16 10:26:49;;;;;;;9.53;4.90;;;;;;;30.77;38.69;99586.64;1459807;88;22159;-86
2022/08/16 10:29:15;;;;;;;12.78;4.60;;;;;;;30.88;38.65;99591.39;1461194;88;21463;-88
2022/08/16 10:31:42;;;;;;;5.78;4.08;;;;;;;31.01;38.30;99587.03;1443148;88;22291;-85
2022/08/16 10:34:08;;;;;;;20.97;5.58;;;;;;;31.06;37.88;99584.77;1455874;89;21441;-87
2022/08/16 10:36:35;;;;;;;9.38;4.15;;;;;;;31.08;37.91;99578.45;1455665;89;21434;-88
2022/08/16 10:39:03;;;;;;;7.05;4.80;;;;;;;31.14;37.47;99582.69;1444687;90;21375;-87
2022/08/16 10:41:30;;;;;;;7.75;4.60;;;;;;;31.14;37.79;99579.96;1448032;88;21509;-87
2022/08/16 10:43:58;;;;;;;4.75;3.90;;;;;;;31.20;37.89;99582.27;1451351;89;22639;-89
2022/08/16 10:46:25;;;;;;;14.50;5.65;;;;;;;31.32;38.24;99574.91;1446260;89;21428;-85
2022/08/16 10:48:51;;;;;;;5.97;4.37;;;;;;;31.43;37.74;99569.51;1456683;89;21391;-87
2022/08/16 10:51:18;;;;;;;8.73;5.30;;;;;;;31.56;37.39;99557.47;1450896;89;21405;-87
2022/08/16 10:53:45;;;;;;;6.03;4.50;;;;;;;31.67;37.17;99556.92;1446017;89;21360;-87
2022/08/16 10:56:11;;;;;;;9.80;5.25;;;;;;;31.79;37.05;99554.20;1463201;89;21330;-87
2022/08/16 10:58:39;;;;;;;5.70;4.78;;;;;;;31.81;37.05;99548.67;1459463;89;21449;-88
2022/08/16 11:01:08;;;;;;;8.35;5.00;;;;;;;31.85;36.59;99553.80;1455236;89;21398;-87
2022/08/16 11:03:37;;;;;;;14.13;5.28;;;;;;;31.95;36.64;99545.11;1435670;89;21448;-87
2022/08/16 11:06:06;;;;;;;8.35;4.78;;;;;;;31.99;36.26;99548.27;1430368;88;21390;-88
2022/08/16 11:08:36;;;;;;;10.40;4.65;;;;;;;32.06;36.46;99543.74;1479275;88;21456;-87
2022/08/16 11:11:05;;;;;;;15.55;4.85;;;;;;;32.06;35.99;99547.84;1475080;88;21360;-87
2022/08/16 11:13:32;;;;;;;6.60;5.30;;;;;;;32.08;36.47;99549.69;1486349;88;21485;-86
2022/08/16 11:15:59;;;;;;;16.45;6.10;;;;;;;32.13;36.38;99548.20;1480052;88;22623;-85
2022/08/16 11:18:28;;;;;;;13.72;5.70;;;;;;;32.25;36.61;99542.16;1471732;88;21455;-86
2022/08/16 11:20:55;;;;;;;;;;;;;;;32.40;36.28;99543.67;1469403;88;21338;-85
2022/08/16 11:23:22;;;;;;;12.03;5.60;;;;;;;32.29;34.28;99535.75;1465430;89;20284;-87
2022/08/16 11:25:55;;;;;;;11.38;5.10;;;;;;;32.33;35.21;99540.03;1438725;88;21427;-85
2022/08/16 11:28:22;;;;;;;5.85;4.60;;;;;;;32.30;35.51;99529.14;1463129;89;21436;-86
2022/08/16 11:30:49;;;;;;;16.70;5.00;;;;;;;32.36;35.78;99527.08;1465978;89;21295;-86
2022/08/16 11:33:16;;;;;;;9.78;5.12;;;;;;;32.46;35.10;99520.57;1450810;89;22202;-87